createdAt,value
2023-03-16T00:00:42.905Z,101497.56
2023-03-16T00:03:19.264Z,101499.66
2023-03-16T00:05:53.346Z,101509.91
2023-03-16T00:08:24.180Z,101505.50
2023-03-16T00:10:54.331Z,101512.19
2023-03-16T00:13:25.733Z,101510.75
2023-03-16T00:16:04.500Z,101509.09
2023-03-16T00:18:38.990Z,101505.75
2023-03-16T00:21:09.202Z,101507.63
2023-03-16T00:23:39.448Z,101512.00
2023-03-16T00:26:10.464Z,101508.25
2023-03-16T00:28:42.824Z,101507.41
2023-03-16T00:31:15.145Z,101513.91
2023-03-16T00:33:45.211Z,101513.47
2023-03-16T00:36:15.235Z,101524.53
2023-03-16T00:38:45.600Z,101517.47
2023-03-16T00:41:18.488Z,101517.66
2023-03-16T00:43:49.080Z,101524.13
2023-03-16T00:46:19.318Z,101516.22
2023-03-16T00:48:49.442Z,101522.47
2023-03-16T00:51:20.039Z,101527.06
2023-03-16T00:53:50.121Z,101525.19
2023-03-16T00:56:20.437Z,101525.38
2023-03-16T00:58:50.526Z,101522.66
2023-03-16T01:01:20.852Z,101524.34
2023-03-16T01:03:51.182Z,101531.63
2023-03-16T01:06:22.251Z,101532.91
2023-03-16T01:08:52.858Z,101528.75
2023-03-16T01:11:24.141Z,101536.06
2023-03-16T01:13:54.400Z,101536.25
2023-03-16T01:16:24.540Z,101536.25
2023-03-16T01:18:55.180Z,101541.47
2023-03-16T01:21:25.555Z,101535.44
2023-03-16T01:23:56.029Z,101529.19
2023-03-16T01:26:26.217Z,101528.94
2023-03-16T01:28:56.359Z,101528.94
2023-03-16T01:31:28.218Z,101532.91
2023-03-16T01:33:58.940Z,101528.75
2023-03-16T01:36:29.049Z,101523.31
2023-03-16T01:39:00.111Z,101526.03
2023-03-16T01:41:27.736Z,101524.97
2023-03-16T01:43:58.607Z,101525.84
2023-03-16T01:46:32.123Z,101529.56
2023-03-16T01:49:26.889Z,101537.28
2023-03-16T01:52:12.668Z,101535.00
2023-03-16T01:55:05.932Z,101539.81
2023-03-16T01:57:46.711Z,101535.66
2023-03-16T02:00:23.788Z,101528.53
2023-03-16T02:03:07.303Z,101528.97
2023-03-16T02:06:19.355Z,101530.22
2023-03-16T02:08:55.417Z,101517.06
2023-03-16T02:11:26.744Z,101523.75
2023-03-16T02:14:09.878Z,101525.84
2023-03-16T02:16:41.300Z,101516.88
2023-03-16T02:19:34.469Z,101519.59
2023-03-16T02:22:09.682Z,101520.00
2023-03-16T02:24:41.483Z,101511.84
2023-03-16T02:27:51.778Z,101515.63
2023-03-16T02:30:23.058Z,101512.50
2023-03-16T02:32:55.352Z,101517.28
2023-03-16T02:35:25.995Z,101517.28
2023-03-16T02:37:56.018Z,101520.19
2023-03-16T02:40:33.494Z,101520.44
2023-03-16T02:43:17.261Z,101525.00
2023-03-16T02:46:00.185Z,101520.00
2023-03-16T02:49:38.000Z,101523.16
2023-03-16T02:52:09.881Z,101532.50
2023-03-16T02:54:39.963Z,101530.03
2023-03-16T02:57:10.197Z,101533.75
2023-03-16T02:59:40.272Z,101533.13
2023-03-16T03:02:11.445Z,101536.66
2023-03-16T03:04:41.987Z,101539.19
2023-03-16T03:07:16.297Z,101542.94
2023-03-16T03:09:46.660Z,101535.00
2023-03-16T03:12:16.680Z,101535.22
2023-03-16T03:14:46.706Z,101540.00
2023-03-16T03:17:16.911Z,101537.53
2023-03-16T03:19:46.976Z,101553.56
2023-03-16T03:22:18.721Z,101547.50
2023-03-16T03:24:48.854Z,101555.00
2023-03-16T03:27:22.538Z,101552.31
2023-03-16T03:29:52.696Z,101557.09
2023-03-16T03:32:23.225Z,101555.63
2023-03-16T03:34:53.301Z,101555.84
2023-03-16T03:37:24.476Z,101558.97
2023-03-16T03:39:54.719Z,101550.19
2023-03-16T03:42:24.882Z,101557.69
2023-03-16T03:44:54.886Z,101554.38
2023-03-16T03:47:24.996Z,101557.06
2023-03-16T03:49:55.002Z,101555.41
2023-03-16T03:52:25.258Z,101559.16
2023-03-16T03:54:53.463Z,101554.56
2023-03-16T03:57:22.063Z,101555.81
2023-03-16T03:59:50.312Z,101556.00
2023-03-16T04:02:18.748Z,101557.25
2023-03-16T04:04:47.185Z,101551.84
2023-03-16T04:07:15.560Z,101559.13
2023-03-16T04:09:44.428Z,101558.31
2023-03-16T04:12:15.286Z,101555.78
2023-03-16T04:14:43.849Z,101553.28
2023-03-16T04:17:12.549Z,101549.75
2023-03-16T04:19:40.755Z,101550.38
2023-03-16T04:22:09.844Z,101553.28
2023-03-16T04:24:37.463Z,101553.47
2023-03-16T04:27:06.021Z,101556.41
2023-03-16T04:29:34.341Z,101557.44
2023-03-16T04:32:02.802Z,101560.16
2023-03-16T04:34:31.817Z,101564.94
2023-03-16T04:36:59.503Z,101563.47
2023-03-16T04:39:27.929Z,101567.22
2023-03-16T04:41:55.743Z,101565.56
2023-03-16T04:44:26.076Z,101571.38
2023-03-16T04:46:56.160Z,101571.59
2023-03-16T04:49:26.621Z,101563.66
2023-03-16T04:51:57.785Z,101567.41
2023-03-16T04:54:28.190Z,101573.84
2023-03-16T04:56:58.440Z,101566.78
2023-03-16T04:59:28.560Z,101558.84
2023-03-16T05:01:58.674Z,101575.28
2023-03-16T05:04:28.710Z,101576.34
2023-03-16T05:06:58.693Z,101575.50
2023-03-16T05:09:28.869Z,101581.94
2023-03-16T05:11:59.206Z,101581.13
2023-03-16T05:14:29.308Z,101588.41
2023-03-16T05:16:59.331Z,101578.41
2023-03-16T05:19:30.406Z,101575.72
2023-03-16T05:22:00.693Z,101580.50
2023-03-16T05:24:28.897Z,101586.72
2023-03-16T05:26:57.633Z,101580.28
2023-03-16T05:29:26.811Z,101579.66
2023-03-16T05:31:54.202Z,101579.66
2023-03-16T05:34:22.966Z,101584.84
2023-03-16T05:36:50.983Z,101590.72
2023-03-16T05:39:19.474Z,101584.69
2023-03-16T05:41:47.765Z,101587.84
2023-03-16T05:44:16.242Z,101588.28
2023-03-16T05:46:45.908Z,101590.97
2023-03-16T05:49:16.142Z,101596.81
2023-03-16T05:51:46.163Z,101602.47
2023-03-16T05:54:16.505Z,101595.59
2023-03-16T05:56:46.568Z,101592.28
2023-03-16T05:59:18.172Z,101596.06
2023-03-16T06:01:49.590Z,101605.22
2023-03-16T06:04:19.703Z,101607.13
2023-03-16T06:06:49.835Z,101609.84
2023-03-16T06:09:19.931Z,101610.50
2023-03-16T06:11:49.955Z,101608.44
2023-03-16T06:14:19.990Z,101599.91
2023-03-16T06:16:50.039Z,101607.00
2023-03-16T06:19:20.123Z,101609.53
2023-03-16T06:21:50.167Z,101612.84
2023-03-16T06:24:21.334Z,101611.41
2023-03-16T06:26:51.381Z,101617.25
2023-03-16T06:29:21.434Z,101619.53
2023-03-16T06:31:52.580Z,101614.50
2023-03-16T06:34:23.205Z,101624.72
2023-03-16T06:36:53.445Z,101627.81
2023-03-16T06:39:23.586Z,101623.41
2023-03-16T06:41:53.593Z,101625.06
2023-03-16T06:44:24.928Z,101630.25
2023-03-16T06:46:54.962Z,101635.19
2023-03-16T06:49:25.169Z,101631.75
2023-03-16T06:51:55.266Z,101638.50
2023-03-16T06:54:25.383Z,101639.00
2023-03-16T06:56:55.494Z,101640.13
2023-03-16T06:59:26.002Z,101653.13
2023-03-16T07:01:56.036Z,101649.63
2023-03-16T07:04:26.147Z,101659.69
2023-03-16T07:06:56.238Z,101661.81
2023-03-16T07:09:26.323Z,101663.03
2023-03-16T07:11:56.578Z,101662.38
2023-03-16T07:14:26.900Z,101676.78
2023-03-16T07:16:57.124Z,101675.41
2023-03-16T07:19:28.179Z,101675.72
2023-03-16T07:21:58.202Z,101673.63
2023-03-16T07:24:28.543Z,101663.91
2023-03-16T07:26:58.591Z,101676.75
2023-03-16T07:29:29.210Z,101675.06
2023-03-16T07:31:59.294Z,101679.56
2023-03-16T07:34:29.520Z,101682.75
2023-03-16T07:36:59.574Z,101682.81
2023-03-16T07:39:29.694Z,101687.38
2023-03-16T07:41:59.686Z,101693.69
2023-03-16T07:44:30.108Z,101692.81
2023-03-16T07:47:00.221Z,101697.34
2023-03-16T07:49:30.236Z,101707.25
2023-03-16T07:52:00.307Z,101700.16
2023-03-16T07:54:30.458Z,101692.75
2023-03-16T07:57:01.269Z,101705.97
2023-03-16T07:59:31.518Z,101702.63
2023-03-16T08:02:01.731Z,101700.53
2023-03-16T08:04:31.990Z,101702.38
2023-03-16T08:07:02.287Z,101697.59
2023-03-16T08:09:35.485Z,101706.16
2023-03-16T08:12:09.583Z,101698.00
2023-03-16T08:14:40.082Z,101706.97
2023-03-16T08:17:10.089Z,101709.63
2023-03-16T08:19:40.372Z,101702.34
2023-03-16T08:22:10.980Z,101704.00
2023-03-16T08:24:41.104Z,101701.38
2023-03-16T08:27:12.084Z,101696.47
2023-03-16T08:29:42.341Z,101702.63
2023-03-16T08:32:12.480Z,101700.25
2023-03-16T08:34:42.537Z,101706.88
2023-03-16T08:37:12.590Z,101714.03
2023-03-16T08:39:43.830Z,101707.16
2023-03-16T08:42:17.421Z,101719.47
2023-03-16T08:44:48.187Z,101722.88
2023-03-16T08:47:19.374Z,101721.50
2023-03-16T08:49:49.413Z,101723.41
2023-03-16T08:52:19.448Z,101732.00
2023-03-16T08:55:02.379Z,101725.91
2023-03-16T08:57:34.595Z,101729.75
2023-03-16T09:00:12.969Z,101729.69
2023-03-16T09:02:44.747Z,101735.19
2023-03-16T09:05:16.358Z,101742.81
2023-03-16T09:07:48.930Z,101738.88
2023-03-16T09:10:19.893Z,101739.06
2023-03-16T09:12:52.215Z,101732.69
2023-03-16T09:15:22.531Z,101744.63
2023-03-16T09:17:53.527Z,101738.31
2023-03-16T09:20:26.918Z,101738.56
2023-03-16T09:22:59.605Z,101737.81
2023-03-16T09:25:30.881Z,101745.00
2023-03-16T09:28:01.124Z,101745.63
2023-03-16T09:30:31.857Z,101749.41
2023-03-16T09:33:02.092Z,101745.00
2023-03-16T09:35:34.396Z,101748.50
2023-03-16T09:38:06.621Z,101753.31
2023-03-16T09:40:38.557Z,101742.88
2023-03-16T09:43:36.932Z,101751.09
2023-03-16T09:46:43.751Z,101748.00
2023-03-16T09:49:21.113Z,101748.78
2023-03-16T09:52:23.515Z,101757.50
2023-03-16T09:55:48.500Z,101759.53
2023-03-16T09:59:35.300Z,101761.00
2023-03-16T10:03:04.082Z,101749.09
2023-03-16T10:05:38.639Z,101749.03
2023-03-16T10:08:25.011Z,101746.16
2023-03-16T10:11:26.741Z,101748.78
2023-03-16T10:14:17.812Z,101752.44
2023-03-16T10:17:00.679Z,101747.81
2023-03-16T10:20:05.086Z,101745.75
2023-03-16T10:22:45.060Z,101737.25
2023-03-16T10:25:50.298Z,101738.47
2023-03-16T10:28:28.798Z,101748.94
2023-03-16T10:31:01.761Z,101746.25
2023-03-16T10:33:36.743Z,101738.53
2023-03-16T10:36:35.515Z,101745.28
2023-03-16T10:39:11.336Z,101737.63
2023-03-16T10:41:48.157Z,101745.00
2023-03-16T10:44:26.227Z,101743.19
2023-03-16T10:47:07.377Z,101734.91
2023-03-16T10:49:47.148Z,101735.47
2023-03-16T10:52:40.049Z,101729.66
2023-03-16T10:55:41.079Z,101731.03
2023-03-16T10:58:11.669Z,101737.19
2023-03-16T11:00:46.883Z,101728.34
2023-03-16T11:03:41.781Z,101735.47
2023-03-16T11:06:30.668Z,101721.66
2023-03-16T11:09:33.189Z,101728.13
2023-03-16T11:12:21.697Z,101727.75
2023-03-16T11:14:52.664Z,101719.88
2023-03-16T11:17:40.005Z,101722.09
2023-03-16T11:20:23.716Z,101730.84
2023-03-16T11:22:53.791Z,101709.72
2023-03-16T11:25:48.491Z,101715.19
2023-03-16T11:28:59.262Z,101711.25
2023-03-16T11:31:55.357Z,101709.00
2023-03-16T11:34:33.119Z,101715.41
2023-03-16T11:38:15.476Z,101711.22
2023-03-16T11:41:04.905Z,101698.09
2023-03-16T11:44:01.542Z,101698.09
2023-03-16T11:46:49.291Z,101694.47
2023-03-16T11:50:01.485Z,101689.09
2023-03-16T11:53:09.910Z,101684.06
2023-03-16T11:56:16.049Z,101681.91
2023-03-16T11:59:34.240Z,101679.13
2023-03-16T12:02:43.807Z,101678.53
2023-03-16T12:05:43.438Z,101674.72
2023-03-16T12:09:17.948Z,101669.84
2023-03-16T12:12:17.389Z,101664.09
2023-03-16T12:15:34.995Z,101660.47
2023-03-16T12:18:49.687Z,101661.19
2023-03-16T12:21:28.194Z,101653.03
2023-03-16T12:24:07.122Z,101650.53
2023-03-16T12:26:43.772Z,101645.41
2023-03-16T12:29:50.019Z,101652.50
2023-03-16T12:33:27.948Z,101646.81
2023-03-16T12:36:16.894Z,101641.34
2023-03-16T12:39:13.744Z,101626.41
2023-03-16T12:42:10.114Z,101624.41
2023-03-16T12:45:04.492Z,101631.53
2023-03-16T12:48:21.208Z,101619.09
2023-03-16T12:51:01.867Z,101618.84
2023-03-16T12:53:55.732Z,101616.16
2023-03-16T12:56:43.538Z,101606.06
2023-03-16T12:59:24.369Z,101601.22
2023-03-16T13:01:59.809Z,101603.94
2023-03-16T13:04:51.788Z,101606.00
2023-03-16T13:07:31.238Z,101596.00
2023-03-16T13:10:16.523Z,101591.69
2023-03-16T13:12:48.290Z,101584.28
2023-03-16T13:15:22.182Z,101591.06
2023-03-16T13:18:15.351Z,101591.47
2023-03-16T13:21:22.999Z,101596.53
2023-03-16T13:24:21.650Z,101599.47
2023-03-16T13:27:04.410Z,101593.75
2023-03-16T13:29:36.063Z,101590.78
2023-03-16T13:32:21.582Z,101593.22
2023-03-16T13:34:58.534Z,101593.66
2023-03-16T13:37:30.989Z,101600.34
2023-03-16T13:40:04.842Z,101593.25
2023-03-16T13:42:34.993Z,101605.34
2023-03-16T13:45:21.422Z,101598.03
2023-03-16T13:47:51.986Z,101589.25
2023-03-16T13:50:22.377Z,101592.81
2023-03-16T13:53:21.109Z,101580.84
2023-03-16T13:55:49.988Z,101574.72
2023-03-16T13:58:40.145Z,101568.06
2023-03-16T14:01:33.343Z,101567.06
2023-03-16T14:04:13.994Z,101566.59
2023-03-16T14:07:00.347Z,101559.63
2023-03-16T14:09:35.847Z,101552.09
2023-03-16T14:12:08.688Z,101542.53
2023-03-16T14:14:41.840Z,101556.50
2023-03-16T14:17:17.721Z,101556.19
2023-03-16T14:20:02.241Z,101554.22
2023-03-16T14:22:38.332Z,101558.25
2023-03-16T14:25:23.641Z,101551.25
2023-03-16T14:28:07.706Z,101547.31
2023-03-16T14:30:38.243Z,101545.50
2023-03-16T14:33:30.029Z,101549.06
2023-03-16T14:36:13.056Z,101534.84
2023-03-16T14:38:45.522Z,101531.53
2023-03-16T14:41:24.586Z,101526.13
2023-03-16T14:44:03.881Z,101523.22
2023-03-16T14:46:42.329Z,101523.72
2023-03-16T14:49:42.155Z,101520.47
2023-03-16T14:52:31.824Z,101508.44
2023-03-16T14:55:15.112Z,101510.59
2023-03-16T14:57:47.216Z,101506.38
2023-03-16T15:00:20.442Z,101497.91
2023-03-16T15:03:12.926Z,101504.56
2023-03-16T15:05:50.421Z,101518.03
2023-03-16T15:08:32.212Z,101504.81
2023-03-16T15:11:07.333Z,101501.63
2023-03-16T15:13:40.817Z,101499.81
2023-03-16T15:16:14.749Z,101498.84
2023-03-16T15:18:44.747Z,101493.97
2023-03-16T15:21:24.912Z,101484.69
2023-03-16T15:23:58.879Z,101479.78
2023-03-16T15:26:30.691Z,101484.59
2023-03-16T15:29:01.337Z,101490.00
2023-03-16T15:31:31.467Z,101492.09
2023-03-16T15:34:01.527Z,101493.50
2023-03-16T15:36:32.305Z,101486.94
2023-03-16T15:39:02.518Z,101481.50
2023-03-16T15:41:46.796Z,101484.81
2023-03-16T15:44:17.582Z,101474.25
2023-03-16T15:46:48.220Z,101477.31
2023-03-16T15:49:18.228Z,101474.50
2023-03-16T15:51:48.380Z,101476.56
2023-03-16T15:54:18.591Z,101475.22
2023-03-16T15:56:54.389Z,101468.06
2023-03-16T15:59:27.167Z,101467.00
2023-03-16T16:01:56.273Z,101463.22
2023-03-16T16:04:26.326Z,101468.00
2023-03-16T16:06:55.543Z,101471.72
2023-03-16T16:09:24.096Z,101468.44
2023-03-16T16:11:52.038Z,101463.69
2023-03-16T16:14:26.879Z,101460.78
2023-03-16T16:16:56.815Z,101454.41
2023-03-16T16:19:27.148Z,101464.50
2023-03-16T16:21:57.322Z,101466.13
2023-03-16T16:24:27.356Z,101448.06
2023-03-16T16:26:57.474Z,101457.88
2023-03-16T16:29:33.879Z,101459.75
2023-03-16T16:32:04.857Z,101462.81
2023-03-16T16:34:34.965Z,101463.06
2023-03-16T16:37:04.286Z,101460.31
2023-03-16T16:39:35.702Z,101459.28
2023-03-16T16:42:04.684Z,101454.34
2023-03-16T16:44:37.584Z,101455.78
2023-03-16T16:47:23.823Z,101460.84
2023-03-16T16:49:52.802Z,101447.91
2023-03-16T16:52:22.823Z,101444.88
2023-03-16T16:54:52.842Z,101437.44
2023-03-16T16:57:22.809Z,101442.13
2023-03-16T16:59:52.533Z,101436.66
2023-03-16T17:02:45.629Z,101431.41
2023-03-16T17:05:28.185Z,101428.97
2023-03-16T17:08:03.485Z,101422.34
2023-03-16T17:10:34.972Z,101428.38
2023-03-16T17:13:05.610Z,101428.09
2023-03-16T17:15:44.087Z,101427.56
2023-03-16T17:18:15.703Z,101426.16
2023-03-16T17:20:43.317Z,101430.84
2023-03-16T17:23:35.077Z,101439.34
2023-03-16T17:26:34.486Z,101433.81
2023-03-16T17:29:22.583Z,101424.97
2023-03-16T17:31:54.520Z,101435.38
2023-03-16T17:34:33.070Z,101439.44
2023-03-16T17:37:03.110Z,101437.78
2023-03-16T17:39:34.750Z,101434.47
2023-03-16T17:42:23.059Z,101441.31
2023-03-16T17:44:54.333Z,101436.56
2023-03-16T17:47:30.130Z,101442.25
2023-03-16T17:49:57.893Z,101446.34
2023-03-16T17:52:29.902Z,101453.97
2023-03-16T17:54:59.551Z,101443.22
2023-03-16T17:57:34.356Z,101437.72
2023-03-16T18:00:24.358Z,101435.56
2023-03-16T18:03:00.169Z,101416.97
2023-03-16T18:05:35.576Z,101420.25
2023-03-16T18:08:30.559Z,101413.41
2023-03-16T18:11:07.889Z,101429.16
2023-03-16T18:13:41.693Z,101432.47
2023-03-16T18:16:24.934Z,101428.88
2023-03-16T18:19:05.850Z,101429.50
2023-03-16T18:21:36.524Z,101421.31
2023-03-16T18:24:16.010Z,101432.66
2023-03-16T18:26:46.142Z,101426.59
2023-03-16T18:29:16.220Z,101426.00
2023-03-16T18:31:47.894Z,101426.25
2023-03-16T18:34:26.250Z,101426.00
2023-03-16T18:36:59.771Z,101420.25
2023-03-16T18:39:30.443Z,101412.31
2023-03-16T18:42:03.128Z,101416.97
2023-03-16T18:44:33.378Z,101423.84
2023-03-16T18:47:04.285Z,101416.41
2023-03-16T18:49:37.364Z,101414.44
2023-03-16T18:52:29.238Z,101416.06
2023-03-16T18:54:59.365Z,101418.31
2023-03-16T18:57:29.634Z,101409.25
2023-03-16T18:59:57.835Z,101407.63
2023-03-16T19:02:39.615Z,101405.41
2023-03-16T19:05:20.369Z,101393.81
2023-03-16T19:07:53.203Z,101400.19
2023-03-16T19:10:36.666Z,101403.78
2023-03-16T19:13:21.559Z,101404.59
2023-03-16T19:15:55.809Z,101390.84
2023-03-16T19:18:26.325Z,101394.69
2023-03-16T19:20:57.416Z,101389.44
2023-03-16T19:23:37.033Z,101390.91
2023-03-16T19:26:09.001Z,101392.53
2023-03-16T19:28:45.952Z,101396.34
2023-03-16T19:31:29.027Z,101392.69
2023-03-16T19:33:59.229Z,101389.13
2023-03-16T19:36:33.571Z,101384.97
2023-03-16T19:39:02.015Z,101383.84
2023-03-16T19:41:38.348Z,101398.72
2023-03-16T19:44:25.347Z,101405.56
2023-03-16T19:46:53.203Z,101406.88
2023-03-16T19:49:26.113Z,101421.09
2023-03-16T19:51:57.706Z,101423.56
2023-03-16T19:54:29.046Z,101419.47
2023-03-16T19:57:11.452Z,101413.13
2023-03-16T19:59:46.699Z,101411.00
2023-03-16T20:02:40.458Z,101412.09
2023-03-16T20:05:20.680Z,101408.72
2023-03-16T20:07:51.600Z,101403.03
2023-03-16T20:10:30.235Z,101413.84
2023-03-16T20:13:01.892Z,101402.00
2023-03-16T20:15:34.295Z,101403.84
2023-03-16T20:18:13.328Z,101399.41
2023-03-16T20:20:46.218Z,101386.97
2023-03-16T20:23:30.100Z,101390.03
2023-03-16T20:26:02.831Z,101389.22
2023-03-16T20:28:38.095Z,101391.16
2023-03-16T20:31:14.151Z,101394.41
2023-03-16T20:33:44.111Z,101386.41
2023-03-16T20:36:15.840Z,101389.28
2023-03-16T20:38:44.891Z,101396.47
2023-03-16T20:41:36.638Z,101390.53
2023-03-16T20:44:15.573Z,101386.34
2023-03-16T20:46:47.023Z,101385.38
2023-03-16T20:49:23.836Z,101391.22
2023-03-16T20:51:54.144Z,101373.28
2023-03-16T20:54:24.641Z,101375.22
2023-03-16T20:56:55.245Z,101376.94
2023-03-16T20:59:28.324Z,101372.81
2023-03-16T21:01:58.559Z,101373.34
2023-03-16T21:04:30.007Z,101360.22
2023-03-16T21:07:00.203Z,101363.22
2023-03-16T21:09:33.202Z,101350.28
2023-03-16T21:12:04.399Z,101348.06
2023-03-16T21:14:35.319Z,101343.31
2023-03-16T21:17:39.398Z,101345.03
2023-03-16T21:20:22.512Z,101345.06
2023-03-16T21:22:52.873Z,101337.66
2023-03-16T21:25:30.687Z,101343.50
2023-03-16T21:28:05.536Z,101339.91
2023-03-16T21:30:54.900Z,101334.63
2023-03-16T21:33:37.528Z,101320.31
2023-03-16T21:36:18.201Z,101320.28
2023-03-16T21:38:50.929Z,101323.53
2023-03-16T21:41:21.668Z,101322.81
2023-03-16T21:43:51.799Z,101312.28
2023-03-16T21:46:25.668Z,101316.34
2023-03-16T21:48:56.361Z,101308.94
2023-03-16T21:51:33.618Z,101315.59
2023-03-16T21:54:07.808Z,101313.34
2023-03-16T21:56:39.024Z,101304.25
2023-03-16T21:59:10.000Z,101307.16
2023-03-16T22:01:54.638Z,101302.25
2023-03-16T22:04:30.369Z,101300.13
2023-03-16T22:06:57.768Z,101294.00
2023-03-16T22:09:30.379Z,101295.25
2023-03-16T22:11:59.461Z,101294.91
2023-03-16T22:14:29.254Z,101282.84
2023-03-16T22:16:59.201Z,101285.94
2023-03-16T22:19:29.332Z,101272.78
2023-03-16T22:22:00.094Z,101280.53
2023-03-16T22:24:34.896Z,101289.38
2023-03-16T22:27:21.465Z,101278.94
2023-03-16T22:29:52.171Z,101277.53
2023-03-16T22:32:23.206Z,101267.59
2023-03-16T22:34:57.407Z,101256.06
2023-03-16T22:37:29.183Z,101264.09
2023-03-16T22:40:01.986Z,101257.16
2023-03-16T22:42:39.437Z,101258.97
2023-03-16T22:45:28.491Z,101262.56
2023-03-16T22:48:02.996Z,101257.28
2023-03-16T22:50:36.370Z,101251.47
2023-03-16T22:53:08.945Z,101256.41
2023-03-16T22:55:41.015Z,101239.31
2023-03-16T22:58:27.673Z,101243.81
2023-03-16T23:00:55.748Z,101232.69
2023-03-16T23:03:25.931Z,101236.50
2023-03-16T23:05:56.684Z,101230.75
2023-03-16T23:08:26.734Z,101238.19
2023-03-16T23:10:57.018Z,101237.06
2023-03-16T23:13:27.502Z,101238.28
2023-03-16T23:15:57.536Z,101237.47
2023-03-16T23:18:27.315Z,101240.19
2023-03-16T23:20:57.324Z,101232.19
2023-03-16T23:23:27.560Z,101223.44
2023-03-16T23:25:57.574Z,101224.75
2023-03-16T23:28:27.458Z,101224.06
2023-03-16T23:30:57.527Z,101221.56
2023-03-16T23:33:27.588Z,101214.22
2023-03-16T23:35:57.198Z,101211.41
2023-03-16T23:38:27.297Z,101213.00
2023-03-16T23:40:57.310Z,101207.16
2023-03-16T23:43:27.825Z,101205.75
2023-03-16T23:45:57.230Z,101208.88
2023-03-16T23:48:27.324Z,101211.53
2023-03-16T23:50:58.033Z,101207.78
2023-03-16T23:53:27.631Z,101200.09
2023-03-16T23:55:58.051Z,101202.00
2023-03-16T23:58:27.958Z,101204.69
